sensor_id;sensor_type;location;lat;lon;timestamp;P1;durP1;ratioP1;P2;durP2;ratioP2
18334;SDS011;9293;49.524;10.964;2022-12-16T00:00:19;24.75;;;15.43;;
18334;SDS011;9293;49.524;10.964;2022-12-16T00:02:48;26.27;;;15.40;;
18334;SDS011;9293;49.524;10.964;2022-12-16T00:05:17;29.00;;;15.40;;
18334;SDS011;9293;49.524;10.964;2022-12-16T00:07:47;27.02;;;15.90;;
18334;SDS011;9293;49.524;10.964;2022-12-16T00:10:15;26.35;;;15.38;;
18334;SDS011;9293;49.524;10.964;2022-12-16T00:12:43;25.85;;;15.10;;
18334;SDS011;9293;49.524;10.964;2022-12-16T00:15:11;24.80;;;14.88;;
18334;SDS011;9293;49.524;10.964;2022-12-16T00:17:39;25.15;;;15.07;;
18334;SDS011;9293;49.524;10.964;2022-12-16T00:20:07;23.20;;;14.18;;
18334;SDS011;9293;49.524;10.964;2022-12-16T00:22:36;24.50;;;13.98;;
18334;SDS011;9293;49.524;10.964;2022-12-16T00:25:04;24.80;;;14.35;;
18334;SDS011;9293;49.524;10.964;2022-12-16T00:27:32;24.17;;;13.77;;
18334;SDS011;9293;49.524;10.964;2022-12-16T00:30:01;24.33;;;14.10;;
18334;SDS011;9293;49.524;10.964;2022-12-16T00:32:29;25.92;;;14.65;;
18334;SDS011;9293;49.524;10.964;2022-12-16T00:34:57;27.60;;;14.65;;
18334;SDS011;9293;49.524;10.964;2022-12-16T00:37:25;22.25;;;13.65;;
18334;SDS011;9293;49.524;10.964;2022-12-16T00:39:54;24.08;;;13.60;;
18334;SDS011;9293;49.524;10.964;2022-12-16T00:42:22;24.58;;;13.10;;
18334;SDS011;9293;49.524;10.964;2022-12-16T00:44:50;23.95;;;13.75;;
18334;SDS011;9293;49.524;10.964;2022-12-16T00:47:20;28.38;;;13.30;;
18334;SDS011;9293;49.524;10.964;2022-12-16T00:49:47;21.25;;;13.30;;
18334;SDS011;9293;49.524;10.964;2022-12-16T00:52:15;21.88;;;12.80;;
18334;SDS011;9293;49.524;10.964;2022-12-16T00:54:43;22.70;;;13.57;;
18334;SDS011;9293;49.524;10.964;2022-12-16T00:57:11;24.60;;;13.77;;
18334;SDS011;9293;49.524;10.964;2022-12-16T00:59:40;21.80;;;12.68;;
18334;SDS011;9293;49.524;10.964;2022-12-16T01:02:08;22.95;;;12.55;;
18334;SDS011;9293;49.524;10.964;2022-12-16T01:04:37;25.00;;;13.88;;
18334;SDS011;9293;49.524;10.964;2022-12-16T01:07:05;21.52;;;12.60;;
18334;SDS011;9293;49.524;10.964;2022-12-16T01:09:33;24.52;;;13.80;;
18334;SDS011;9293;49.524;10.964;2022-12-16T01:12:02;23.75;;;13.63;;
18334;SDS011;9293;49.524;10.964;2022-12-16T01:14:30;24.90;;;14.65;;
18334;SDS011;9293;49.524;10.964;2022-12-16T01:16:58;20.90;;;12.93;;
18334;SDS011;9293;49.524;10.964;2022-12-16T01:19:27;24.30;;;13.85;;
18334;SDS011;9293;49.524;10.964;2022-12-16T01:21:55;24.30;;;14.48;;
18334;SDS011;9293;49.524;10.964;2022-12-16T01:24:23;26.48;;;14.50;;
18334;SDS011;9293;49.524;10.964;2022-12-16T01:26:51;24.85;;;14.45;;
18334;SDS011;9293;49.524;10.964;2022-12-16T01:29:19;22.20;;;13.95;;
18334;SDS011;9293;49.524;10.964;2022-12-16T01:31:47;25.60;;;15.57;;
18334;SDS011;9293;49.524;10.964;2022-12-16T01:34:15;27.35;;;14.55;;
18334;SDS011;9293;49.524;10.964;2022-12-16T01:36:43;26.15;;;15.32;;
18334;SDS011;9293;49.524;10.964;2022-12-16T01:39:14;27.30;;;15.10;;
18334;SDS011;9293;49.524;10.964;2022-12-16T01:41:43;26.45;;;15.20;;
18334;SDS011;9293;49.524;10.964;2022-12-16T01:44:32;29.45;;;16.55;;
18334;SDS011;9293;49.524;10.964;2022-12-16T01:47:02;24.48;;;14.40;;
18334;SDS011;9293;49.524;10.964;2022-12-16T01:49:35;27.52;;;15.02;;
18334;SDS011;9293;49.524;10.964;2022-12-16T01:52:12;27.45;;;15.82;;
18334;SDS011;9293;49.524;10.964;2022-12-16T01:55:14;26.20;;;14.75;;
18334;SDS011;9293;49.524;10.964;2022-12-16T01:57:48;28.88;;;16.25;;
18334;SDS011;9293;49.524;10.964;2022-12-16T02:00:20;28.42;;;16.73;;
18334;SDS011;9293;49.524;10.964;2022-12-16T02:02:49;27.70;;;15.75;;
18334;SDS011;9293;49.524;10.964;2022-12-16T02:05:20;28.00;;;14.65;;
18334;SDS011;9293;49.524;10.964;2022-12-16T02:07:53;25.05;;;15.25;;
18334;SDS011;9293;49.524;10.964;2022-12-16T02:27:33;28.27;;;16.38;;
18334;SDS011;9293;49.524;10.964;2022-12-16T02:30:36;27.08;;;15.00;;
18334;SDS011;9293;49.524;10.964;2022-12-16T02:33:26;31.27;;;16.80;;
18334;SDS011;9293;49.524;10.964;2022-12-16T02:38:59;35.53;;;18.48;;
18334;SDS011;9293;49.524;10.964;2022-12-16T02:44:24;25.45;;;15.82;;
18334;SDS011;9293;49.524;10.964;2022-12-16T02:47:01;29.15;;;16.65;;
18334;SDS011;9293;49.524;10.964;2022-12-16T02:51:57;28.58;;;16.25;;
18334;SDS011;9293;49.524;10.964;2022-12-16T02:54:27;27.50;;;16.40;;
18334;SDS011;9293;49.524;10.964;2022-12-16T02:57:10;28.75;;;17.13;;
18334;SDS011;9293;49.524;10.964;2022-12-16T03:02:46;27.95;;;16.17;;
18334;SDS011;9293;49.524;10.964;2022-12-16T03:05:29;26.88;;;15.77;;
18334;SDS011;9293;49.524;10.964;2022-12-16T03:08:12;27.42;;;16.27;;
18334;SDS011;9293;49.524;10.964;2022-12-16T03:10:46;28.42;;;15.60;;
18334;SDS011;9293;49.524;10.964;2022-12-16T03:13:20;24.75;;;15.27;;
18334;SDS011;9293;49.524;10.964;2022-12-16T03:15:51;25.75;;;15.13;;
18334;SDS011;9293;49.524;10.964;2022-12-16T03:18:20;27.45;;;16.13;;
18334;SDS011;9293;49.524;10.964;2022-12-16T03:20:51;29.08;;;15.50;;
18334;SDS011;9293;49.524;10.964;2022-12-16T03:23:36;27.70;;;15.90;;
18334;SDS011;9293;49.524;10.964;2022-12-16T03:26:21;24.80;;;14.82;;
18334;SDS011;9293;49.524;10.964;2022-12-16T03:29:01;25.52;;;15.02;;
18334;SDS011;9293;49.524;10.964;2022-12-16T03:34:17;26.88;;;15.73;;
18334;SDS011;9293;49.524;10.964;2022-12-16T03:37:05;26.55;;;14.85;;
18334;SDS011;9293;49.524;10.964;2022-12-16T03:39:38;27.02;;;15.43;;
18334;SDS011;9293;49.524;10.964;2022-12-16T03:42:10;22.90;;;14.38;;
18334;SDS011;9293;49.524;10.964;2022-12-16T03:44:44;24.85;;;14.52;;
18334;SDS011;9293;49.524;10.964;2022-12-16T03:47:13;23.00;;;14.40;;
18334;SDS011;9293;49.524;10.964;2022-12-16T03:49:48;23.75;;;13.88;;
18334;SDS011;9293;49.524;10.964;2022-12-16T03:52:16;28.15;;;15.48;;
18334;SDS011;9293;49.524;10.964;2022-12-16T03:54:44;22.58;;;14.35;;
18334;SDS011;9293;49.524;10.964;2022-12-16T03:57:12;24.80;;;14.50;;
18334;SDS011;9293;49.524;10.964;2022-12-16T03:59:41;26.02;;;14.68;;
18334;SDS011;9293;49.524;10.964;2022-12-16T04:02:09;26.08;;;15.30;;
18334;SDS011;9293;49.524;10.964;2022-12-16T04:04:37;26.52;;;14.32;;
18334;SDS011;9293;49.524;10.964;2022-12-16T04:07:05;25.55;;;15.15;;
18334;SDS011;9293;49.524;10.964;2022-12-16T04:09:51;25.90;;;14.98;;
18334;SDS011;9293;49.524;10.964;2022-12-16T04:12:23;24.35;;;15.02;;
18334;SDS011;9293;49.524;10.964;2022-12-16T04:15:10;27.27;;;15.95;;
18334;SDS011;9293;49.524;10.964;2022-12-16T04:18:04;26.92;;;15.15;;
18334;SDS011;9293;49.524;10.964;2022-12-16T04:21:01;27.40;;;15.50;;
18334;SDS011;9293;49.524;10.964;2022-12-16T04:26:41;25.17;;;14.30;;
18334;SDS011;9293;49.524;10.964;2022-12-16T04:29:28;24.23;;;14.05;;
18334;SDS011;9293;49.524;10.964;2022-12-16T04:31:59;25.73;;;15.02;;
18334;SDS011;9293;49.524;10.964;2022-12-16T04:34:27;25.70;;;15.15;;
18334;SDS011;9293;49.524;10.964;2022-12-16T04:36:57;27.60;;;15.15;;
18334;SDS011;9293;49.524;10.964;2022-12-16T04:39:47;23.45;;;13.68;;
18334;SDS011;9293;49.524;10.964;2022-12-16T04:42:34;24.65;;;14.38;;
18334;SDS011;9293;49.524;10.964;2022-12-16T04:45:21;24.33;;;14.27;;
18334;SDS011;9293;49.524;10.964;2022-12-16T04:48:07;24.77;;;13.45;;
18334;SDS011;9293;49.524;10.964;2022-12-16T04:50:54;22.55;;;13.82;;
18334;SDS011;9293;49.524;10.964;2022-12-16T04:53:40;23.60;;;13.90;;
18334;SDS011;9293;49.524;10.964;2022-12-16T04:56:29;23.50;;;13.45;;
18334;SDS011;9293;49.524;10.964;2022-12-16T04:59:16;25.45;;;13.38;;
18334;SDS011;9293;49.524;10.964;2022-12-16T05:02:02;21.48;;;13.60;;
18334;SDS011;9293;49.524;10.964;2022-12-16T05:04:49;22.13;;;12.60;;
18334;SDS011;9293;49.524;10.964;2022-12-16T05:07:35;20.17;;;12.93;;
18334;SDS011;9293;49.524;10.964;2022-12-16T05:10:22;23.98;;;13.32;;
18334;SDS011;9293;49.524;10.964;2022-12-16T05:13:08;19.98;;;11.95;;
18334;SDS011;9293;49.524;10.964;2022-12-16T05:15:55;21.08;;;12.20;;
18334;SDS011;9293;49.524;10.964;2022-12-16T05:18:42;19.48;;;11.52;;
18334;SDS011;9293;49.524;10.964;2022-12-16T05:21:29;20.88;;;12.27;;
18334;SDS011;9293;49.524;10.964;2022-12-16T05:24:20;24.33;;;13.07;;
18334;SDS011;9293;49.524;10.964;2022-12-16T05:27:08;21.60;;;13.00;;
18334;SDS011;9293;49.524;10.964;2022-12-16T05:29:55;21.95;;;12.77;;
18334;SDS011;9293;49.524;10.964;2022-12-16T05:32:41;20.58;;;12.35;;
18334;SDS011;9293;49.524;10.964;2022-12-16T05:35:28;23.17;;;13.27;;
18334;SDS011;9293;49.524;10.964;2022-12-16T05:38:15;20.85;;;13.05;;
18334;SDS011;9293;49.524;10.964;2022-12-16T05:41:02;23.77;;;13.23;;
18334;SDS011;9293;49.524;10.964;2022-12-16T05:43:48;22.88;;;12.77;;
18334;SDS011;9293;49.524;10.964;2022-12-16T05:46:35;23.80;;;12.88;;
18334;SDS011;9293;49.524;10.964;2022-12-16T05:49:21;20.48;;;12.50;;
18334;SDS011;9293;49.524;10.964;2022-12-16T05:52:08;21.90;;;12.73;;
18334;SDS011;9293;49.524;10.964;2022-12-16T05:54:55;21.92;;;13.15;;
18334;SDS011;9293;49.524;10.964;2022-12-16T05:57:41;25.80;;;13.07;;
18334;SDS011;9293;49.524;10.964;2022-12-16T06:00:28;20.00;;;12.07;;
18334;SDS011;9293;49.524;10.964;2022-12-16T06:03:15;21.85;;;13.10;;
18334;SDS011;9293;49.524;10.964;2022-12-16T06:06:02;23.52;;;12.40;;
18334;SDS011;9293;49.524;10.964;2022-12-16T06:08:52;20.90;;;12.20;;
18334;SDS011;9293;49.524;10.964;2022-12-16T06:11:38;19.83;;;12.55;;
18334;SDS011;9293;49.524;10.964;2022-12-16T06:14:25;20.48;;;12.27;;
18334;SDS011;9293;49.524;10.964;2022-12-16T06:17:12;20.73;;;12.95;;
18334;SDS011;9293;49.524;10.964;2022-12-16T06:19:58;20.45;;;11.57;;
18334;SDS011;9293;49.524;10.964;2022-12-16T06:22:51;17.83;;;12.27;;
18334;SDS011;9293;49.524;10.964;2022-12-16T06:25:38;20.17;;;12.00;;
18334;SDS011;9293;49.524;10.964;2022-12-16T06:28:27;21.50;;;13.52;;
18334;SDS011;9293;49.524;10.964;2022-12-16T06:31:13;21.30;;;12.70;;
18334;SDS011;9293;49.524;10.964;2022-12-16T06:34:00;22.30;;;12.32;;
18334;SDS011;9293;49.524;10.964;2022-12-16T06:36:47;20.60;;;11.32;;
18334;SDS011;9293;49.524;10.964;2022-12-16T06:39:34;19.65;;;11.80;;
18334;SDS011;9293;49.524;10.964;2022-12-16T06:42:21;19.60;;;11.75;;
18334;SDS011;9293;49.524;10.964;2022-12-16T06:45:08;17.40;;;11.00;;
18334;SDS011;9293;49.524;10.964;2022-12-16T06:48:00;16.88;;;11.23;;
18334;SDS011;9293;49.524;10.964;2022-12-16T06:50:46;21.15;;;11.30;;
18334;SDS011;9293;49.524;10.964;2022-12-16T06:53:32;19.20;;;11.68;;
18334;SDS011;9293;49.524;10.964;2022-12-16T06:56:19;18.38;;;11.77;;
18334;SDS011;9293;49.524;10.964;2022-12-16T06:59:05;15.85;;;10.77;;
18334;SDS011;9293;49.524;10.964;2022-12-16T07:01:52;20.30;;;11.85;;
18334;SDS011;9293;49.524;10.964;2022-12-16T07:04:38;18.40;;;11.73;;
18334;SDS011;9293;49.524;10.964;2022-12-16T07:07:25;18.65;;;10.85;;
18334;SDS011;9293;49.524;10.964;2022-12-16T07:10:11;16.05;;;10.65;;
18334;SDS011;9293;49.524;10.964;2022-12-16T07:13:01;18.00;;;10.90;;
18334;SDS011;9293;49.524;10.964;2022-12-16T07:15:47;19.15;;;10.93;;
18334;SDS011;9293;49.524;10.964;2022-12-16T07:18:39;19.15;;;10.57;;
18334;SDS011;9293;49.524;10.964;2022-12-16T07:21:25;14.77;;;9.27;;
18334;SDS011;9293;49.524;10.964;2022-12-16T07:24:12;17.30;;;10.85;;
18334;SDS011;9293;49.524;10.964;2022-12-16T07:26:58;15.82;;;10.48;;
18334;SDS011;9293;49.524;10.964;2022-12-16T07:29:44;16.23;;;10.45;;
18334;SDS011;9293;49.524;10.964;2022-12-16T07:32:31;19.92;;;10.52;;
18334;SDS011;9293;49.524;10.964;2022-12-16T07:35:18;20.27;;;10.80;;
18334;SDS011;9293;49.524;10.964;2022-12-16T07:38:04;16.48;;;10.15;;
18334;SDS011;9293;49.524;10.964;2022-12-16T07:40:50;13.38;;;9.25;;
18334;SDS011;9293;49.524;10.964;2022-12-16T07:43:37;16.35;;;10.52;;
18334;SDS011;9293;49.524;10.964;2022-12-16T07:46:23;14.52;;;10.25;;
18334;SDS011;9293;49.524;10.964;2022-12-16T07:49:10;17.80;;;11.52;;
18334;SDS011;9293;49.524;10.964;2022-12-16T07:51:56;17.67;;;11.20;;
18334;SDS011;9293;49.524;10.964;2022-12-16T07:54:43;17.63;;;11.10;;
18334;SDS011;9293;49.524;10.964;2022-12-16T07:57:29;20.88;;;11.98;;
18334;SDS011;9293;49.524;10.964;2022-12-16T08:00:35;17.00;;;11.75;;
18334;SDS011;9293;49.524;10.964;2022-12-16T08:03:22;17.85;;;11.98;;
18334;SDS011;9293;49.524;10.964;2022-12-16T08:06:09;18.65;;;12.60;;
18334;SDS011;9293;49.524;10.964;2022-12-16T08:08:56;20.73;;;13.38;;
18334;SDS011;9293;49.524;10.964;2022-12-16T08:11:42;25.40;;;12.80;;
18334;SDS011;9293;49.524;10.964;2022-12-16T08:14:29;24.17;;;13.90;;
18334;SDS011;9293;49.524;10.964;2022-12-16T08:17:17;20.77;;;13.05;;
18334;SDS011;9293;49.524;10.964;2022-12-16T08:20:04;18.77;;;12.13;;
18334;SDS011;9293;49.524;10.964;2022-12-16T08:22:55;19.80;;;12.18;;
18334;SDS011;9293;49.524;10.964;2022-12-16T08:25:42;21.52;;;13.63;;
18334;SDS011;9293;49.524;10.964;2022-12-16T08:28:32;18.95;;;12.60;;
18334;SDS011;9293;49.524;10.964;2022-12-16T08:31:18;20.05;;;13.07;;
18334;SDS011;9293;49.524;10.964;2022-12-16T08:34:05;21.75;;;12.18;;
18334;SDS011;9293;49.524;10.964;2022-12-16T08:36:51;21.45;;;13.02;;
18334;SDS011;9293;49.524;10.964;2022-12-16T08:39:39;21.05;;;13.02;;
18334;SDS011;9293;49.524;10.964;2022-12-16T08:42:45;20.30;;;13.23;;
18334;SDS011;9293;49.524;10.964;2022-12-16T08:45:38;19.05;;;13.57;;
18334;SDS011;9293;49.524;10.964;2022-12-16T08:48:25;21.98;;;13.55;;
18334;SDS011;9293;49.524;10.964;2022-12-16T08:51:12;20.75;;;12.98;;
18334;SDS011;9293;49.524;10.964;2022-12-16T08:53:59;19.27;;;12.70;;
18334;SDS011;9293;49.524;10.964;2022-12-16T08:56:45;22.45;;;12.98;;
18334;SDS011;9293;49.524;10.964;2022-12-16T08:59:32;23.45;;;13.20;;
18334;SDS011;9293;49.524;10.964;2022-12-16T09:02:18;18.65;;;12.48;;
18334;SDS011;9293;49.524;10.964;2022-12-16T09:05:05;18.80;;;12.45;;
18334;SDS011;9293;49.524;10.964;2022-12-16T09:07:56;18.25;;;11.43;;
18334;SDS011;9293;49.524;10.964;2022-12-16T09:10:45;21.73;;;11.88;;
18334;SDS011;9293;49.524;10.964;2022-12-16T09:13:31;18.83;;;12.45;;
18334;SDS011;9293;49.524;10.964;2022-12-16T09:16:18;21.40;;;13.23;;
18334;SDS011;9293;49.524;10.964;2022-12-16T09:19:04;17.88;;;11.85;;
18334;SDS011;9293;49.524;10.964;2022-12-16T09:21:51;19.08;;;12.00;;
18334;SDS011;9293;49.524;10.964;2022-12-16T09:24:37;21.13;;;12.30;;
18334;SDS011;9293;49.524;10.964;2022-12-16T09:27:24;22.23;;;12.50;;
18334;SDS011;9293;49.524;10.964;2022-12-16T09:30:11;21.48;;;12.27;;
18334;SDS011;9293;49.524;10.964;2022-12-16T09:33:00;18.98;;;12.27;;
18334;SDS011;9293;49.524;10.964;2022-12-16T09:35:49;20.25;;;11.82;;
18334;SDS011;9293;49.524;10.964;2022-12-16T09:38:35;19.75;;;12.38;;
18334;SDS011;9293;49.524;10.964;2022-12-16T09:50:17;16.10;;;11.00;;
18334;SDS011;9293;49.524;10.964;2022-12-16T09:53:09;17.90;;;11.63;;
18334;SDS011;9293;49.524;10.964;2022-12-16T09:56:00;16.97;;;11.30;;
18334;SDS011;9293;49.524;10.964;2022-12-16T09:58:51;19.35;;;12.25;;
18334;SDS011;9293;49.524;10.964;2022-12-16T10:01:43;18.65;;;12.45;;
18334;SDS011;9293;49.524;10.964;2022-12-16T10:04:30;21.13;;;12.15;;
18334;SDS011;9293;49.524;10.964;2022-12-16T10:07:19;21.45;;;12.10;;
18334;SDS011;9293;49.524;10.964;2022-12-16T10:10:15;21.42;;;13.68;;
18334;SDS011;9293;49.524;10.964;2022-12-16T10:13:29;19.48;;;12.10;;
18334;SDS011;9293;49.524;10.964;2022-12-16T10:23:12;18.23;;;12.13;;
18334;SDS011;9293;49.524;10.964;2022-12-16T10:26:11;19.90;;;12.50;;
18334;SDS011;9293;49.524;10.964;2022-12-16T10:29:09;17.75;;;12.02;;
18334;SDS011;9293;49.524;10.964;2022-12-16T10:32:13;20.08;;;13.07;;
18334;SDS011;9293;49.524;10.964;2022-12-16T10:35:18;20.15;;;13.13;;
18334;SDS011;9293;49.524;10.964;2022-12-16T10:38:59;21.15;;;13.80;;
18334;SDS011;9293;49.524;10.964;2022-12-16T10:41:44;20.85;;;13.05;;
18334;SDS011;9293;49.524;10.964;2022-12-16T10:47:42;23.13;;;13.68;;
18334;SDS011;9293;49.524;10.964;2022-12-16T10:50:32;20.48;;;13.68;;
18334;SDS011;9293;49.524;10.964;2022-12-16T10:53:23;23.92;;;13.15;;
18334;SDS011;9293;49.524;10.964;2022-12-16T10:59:33;20.70;;;13.18;;
18334;SDS011;9293;49.524;10.964;2022-12-16T11:02:23;20.30;;;13.95;;
18334;SDS011;9293;49.524;10.964;2022-12-16T11:05:33;21.90;;;14.07;;
18334;SDS011;9293;49.524;10.964;2022-12-16T11:08:25;24.77;;;14.85;;
18334;SDS011;9293;49.524;10.964;2022-12-16T11:14:28;22.38;;;14.45;;
18334;SDS011;9293;49.524;10.964;2022-12-16T11:17:35;21.73;;;13.93;;
18334;SDS011;9293;49.524;10.964;2022-12-16T11:20:23;20.77;;;13.77;;
18334;SDS011;9293;49.524;10.964;2022-12-16T11:29:13;21.98;;;14.52;;
18334;SDS011;9293;49.524;10.964;2022-12-16T11:35:12;22.75;;;14.38;;
18334;SDS011;9293;49.524;10.964;2022-12-16T11:38:02;22.10;;;14.27;;
18334;SDS011;9293;49.524;10.964;2022-12-16T11:40:50;23.55;;;14.73;;
18334;SDS011;9293;49.524;10.964;2022-12-16T11:43:38;26.45;;;13.80;;
18334;SDS011;9293;49.524;10.964;2022-12-16T11:46:27;24.40;;;14.77;;
18334;SDS011;9293;49.524;10.964;2022-12-16T11:49:18;22.83;;;14.45;;
18334;SDS011;9293;49.524;10.964;2022-12-16T11:52:14;23.15;;;15.40;;
18334;SDS011;9293;49.524;10.964;2022-12-16T11:55:23;22.58;;;15.32;;
18334;SDS011;9293;49.524;10.964;2022-12-16T11:58:47;24.27;;;14.98;;
18334;SDS011;9293;49.524;10.964;2022-12-16T12:01:51;28.00;;;15.38;;
18334;SDS011;9293;49.524;10.964;2022-12-16T12:04:42;25.05;;;15.95;;
18334;SDS011;9293;49.524;10.964;2022-12-16T12:07:41;23.08;;;14.60;;
18334;SDS011;9293;49.524;10.964;2022-12-16T12:10:45;23.58;;;14.50;;
18334;SDS011;9293;49.524;10.964;2022-12-16T12:13:59;21.85;;;14.45;;
18334;SDS011;9293;49.524;10.964;2022-12-16T12:20:20;24.20;;;15.55;;
18334;SDS011;9293;49.524;10.964;2022-12-16T12:23:28;24.50;;;15.10;;
18334;SDS011;9293;49.524;10.964;2022-12-16T12:26:39;32.45;;;15.18;;
18334;SDS011;9293;49.524;10.964;2022-12-16T12:45:16;23.25;;;13.32;;
18334;SDS011;9293;49.524;10.964;2022-12-16T12:48:23;22.83;;;14.10;;
18334;SDS011;9293;49.524;10.964;2022-12-16T12:54:33;22.27;;;14.13;;
18334;SDS011;9293;49.524;10.964;2022-12-16T12:57:30;24.63;;;14.70;;
18334;SDS011;9293;49.524;10.964;2022-12-16T13:00:23;23.63;;;14.52;;
18334;SDS011;9293;49.524;10.964;2022-12-16T13:03:23;27.73;;;14.13;;
18334;SDS011;9293;49.524;10.964;2022-12-16T13:06:19;22.77;;;14.25;;
18334;SDS011;9293;49.524;10.964;2022-12-16T13:09:21;22.50;;;13.60;;
18334;SDS011;9293;49.524;10.964;2022-12-16T13:15:02;22.65;;;14.45;;
18334;SDS011;9293;49.524;10.964;2022-12-16T13:18:21;23.17;;;15.10;;
18334;SDS011;9293;49.524;10.964;2022-12-16T13:22:00;22.58;;;13.90;;
18334;SDS011;9293;49.524;10.964;2022-12-16T13:24:28;27.33;;;15.73;;
18334;SDS011;9293;49.524;10.964;2022-12-16T13:27:22;23.67;;;15.15;;
18334;SDS011;9293;49.524;10.964;2022-12-16T13:33:06;24.77;;;15.55;;
18334;SDS011;9293;49.524;10.964;2022-12-16T13:36:12;23.30;;;14.80;;
18334;SDS011;9293;49.524;10.964;2022-12-16T13:39:22;23.95;;;15.30;;
18334;SDS011;9293;49.524;10.964;2022-12-16T13:45:27;30.13;;;16.73;;
18334;SDS011;9293;49.524;10.964;2022-12-16T13:57:18;28.75;;;15.55;;
18334;SDS011;9293;49.524;10.964;2022-12-16T14:00:23;28.30;;;16.52;;
18334;SDS011;9293;49.524;10.964;2022-12-16T14:03:17;26.35;;;16.05;;
18334;SDS011;9293;49.524;10.964;2022-12-16T14:06:24;22.88;;;14.68;;
18334;SDS011;9293;49.524;10.964;2022-12-16T14:09:32;24.92;;;15.77;;
18334;SDS011;9293;49.524;10.964;2022-12-16T14:21:38;25.67;;;15.85;;
18334;SDS011;9293;49.524;10.964;2022-12-16T14:24:33;24.02;;;15.02;;
18334;SDS011;9293;49.524;10.964;2022-12-16T14:27:32;26.90;;;15.98;;
18334;SDS011;9293;49.524;10.964;2022-12-16T14:30:21;27.45;;;15.15;;
18334;SDS011;9293;49.524;10.964;2022-12-16T14:33:14;27.77;;;15.93;;
18334;SDS011;9293;49.524;10.964;2022-12-16T14:36:21;25.95;;;15.93;;
18334;SDS011;9293;49.524;10.964;2022-12-16T14:39:20;26.55;;;15.70;;
18334;SDS011;9293;49.524;10.964;2022-12-16T14:51:21;31.83;;;17.20;;
18334;SDS011;9293;49.524;10.964;2022-12-16T14:57:11;28.90;;;16.90;;
18334;SDS011;9293;49.524;10.964;2022-12-16T15:00:02;24.38;;;16.33;;
18334;SDS011;9293;49.524;10.964;2022-12-16T15:05:54;23.73;;;15.80;;
18334;SDS011;9293;49.524;10.964;2022-12-16T15:08:53;31.02;;;16.58;;
18334;SDS011;9293;49.524;10.964;2022-12-16T15:11:42;26.75;;;16.02;;
18334;SDS011;9293;49.524;10.964;2022-12-16T15:14:34;32.72;;;17.65;;
18334;SDS011;9293;49.524;10.964;2022-12-16T15:17:25;29.40;;;15.43;;
18334;SDS011;9293;49.524;10.964;2022-12-16T15:23:14;27.42;;;16.10;;
18334;SDS011;9293;49.524;10.964;2022-12-16T15:26:04;28.60;;;16.83;;
18334;SDS011;9293;49.524;10.964;2022-12-16T15:28:52;25.42;;;15.80;;
18334;SDS011;9293;49.524;10.964;2022-12-16T15:31:39;28.65;;;16.45;;
18334;SDS011;9293;49.524;10.964;2022-12-16T15:34:37;26.58;;;15.90;;
18334;SDS011;9293;49.524;10.964;2022-12-16T15:37:38;30.17;;;18.30;;
18334;SDS011;9293;49.524;10.964;2022-12-16T15:40:30;40.17;;;21.30;;
18334;SDS011;9293;49.524;10.964;2022-12-16T15:43:27;36.35;;;21.13;;
18334;SDS011;9293;49.524;10.964;2022-12-16T15:46:23;41.17;;;24.25;;
18334;SDS011;9293;49.524;10.964;2022-12-16T15:49:34;33.28;;;18.98;;
18334;SDS011;9293;49.524;10.964;2022-12-16T15:55:33;32.65;;;19.48;;
18334;SDS011;9293;49.524;10.964;2022-12-16T15:58:31;33.72;;;18.92;;
18334;SDS011;9293;49.524;10.964;2022-12-16T16:01:20;27.63;;;17.05;;
18334;SDS011;9293;49.524;10.964;2022-12-16T16:07:17;26.75;;;15.48;;
18334;SDS011;9293;49.524;10.964;2022-12-16T16:10:16;24.30;;;14.63;;
18334;SDS011;9293;49.524;10.964;2022-12-16T16:13:08;23.90;;;14.77;;
18334;SDS011;9293;49.524;10.964;2022-12-16T16:15:55;26.02;;;16.23;;
18334;SDS011;9293;49.524;10.964;2022-12-16T16:18:56;27.60;;;16.33;;
18334;SDS011;9293;49.524;10.964;2022-12-16T16:21:43;25.42;;;15.13;;
18334;SDS011;9293;49.524;10.964;2022-12-16T16:24:29;28.40;;;16.60;;
18334;SDS011;9293;49.524;10.964;2022-12-16T16:27:16;24.92;;;15.38;;
18334;SDS011;9293;49.524;10.964;2022-12-16T16:30:03;24.42;;;15.57;;
18334;SDS011;9293;49.524;10.964;2022-12-16T16:32:50;27.77;;;16.05;;
18334;SDS011;9293;49.524;10.964;2022-12-16T16:35:37;27.65;;;15.30;;
18334;SDS011;9293;49.524;10.964;2022-12-16T16:38:24;24.33;;;15.90;;
18334;SDS011;9293;49.524;10.964;2022-12-16T16:41:12;24.92;;;14.77;;
18334;SDS011;9293;49.524;10.964;2022-12-16T16:44:00;26.15;;;15.00;;
18334;SDS011;9293;49.524;10.964;2022-12-16T16:46:46;26.30;;;15.32;;
18334;SDS011;9293;49.524;10.964;2022-12-16T16:49:34;26.50;;;16.00;;
18334;SDS011;9293;49.524;10.964;2022-12-16T16:52:26;29.30;;;17.02;;
18334;SDS011;9293;49.524;10.964;2022-12-16T16:55:14;26.92;;;15.60;;
18334;SDS011;9293;49.524;10.964;2022-12-16T16:58:14;28.83;;;16.77;;
18334;SDS011;9293;49.524;10.964;2022-12-16T17:01:12;27.08;;;16.13;;
18334;SDS011;9293;49.524;10.964;2022-12-16T17:04:00;33.35;;;17.67;;
18334;SDS011;9293;49.524;10.964;2022-12-16T17:07:02;32.15;;;17.92;;
18334;SDS011;9293;49.524;10.964;2022-12-16T17:09:49;30.35;;;17.75;;
18334;SDS011;9293;49.524;10.964;2022-12-16T17:12:57;35.00;;;20.20;;
18334;SDS011;9293;49.524;10.964;2022-12-16T17:15:50;33.42;;;19.52;;
18334;SDS011;9293;49.524;10.964;2022-12-16T17:18:43;33.33;;;18.73;;
18334;SDS011;9293;49.524;10.964;2022-12-16T17:21:31;30.73;;;18.67;;
18334;SDS011;9293;49.524;10.964;2022-12-16T17:24:32;29.25;;;17.90;;
18334;SDS011;9293;49.524;10.964;2022-12-16T17:27:22;29.77;;;17.65;;
18334;SDS011;9293;49.524;10.964;2022-12-16T17:30:28;27.10;;;16.23;;
18334;SDS011;9293;49.524;10.964;2022-12-16T17:33:32;28.52;;;17.50;;
18334;SDS011;9293;49.524;10.964;2022-12-16T17:36:21;26.48;;;16.25;;
18334;SDS011;9293;49.524;10.964;2022-12-16T17:39:08;30.17;;;17.00;;
18334;SDS011;9293;49.524;10.964;2022-12-16T17:41:56;29.42;;;17.77;;
18334;SDS011;9293;49.524;10.964;2022-12-16T17:44:42;29.52;;;16.50;;
18334;SDS011;9293;49.524;10.964;2022-12-16T17:47:29;28.30;;;16.95;;
18334;SDS011;9293;49.524;10.964;2022-12-16T17:50:15;27.70;;;17.00;;
18334;SDS011;9293;49.524;10.964;2022-12-16T17:53:02;34.28;;;19.50;;
18334;SDS011;9293;49.524;10.964;2022-12-16T17:55:48;37.53;;;20.25;;
18334;SDS011;9293;49.524;10.964;2022-12-16T17:58:38;35.00;;;20.50;;
18334;SDS011;9293;49.524;10.964;2022-12-16T18:01:31;31.80;;;20.08;;
18334;SDS011;9293;49.524;10.964;2022-12-16T18:04:22;32.85;;;18.52;;
18334;SDS011;9293;49.524;10.964;2022-12-16T18:07:08;30.67;;;17.40;;
18334;SDS011;9293;49.524;10.964;2022-12-16T18:09:55;30.02;;;18.42;;
18334;SDS011;9293;49.524;10.964;2022-12-16T18:12:41;31.02;;;18.45;;
18334;SDS011;9293;49.524;10.964;2022-12-16T18:15:28;30.20;;;19.08;;
18334;SDS011;9293;49.524;10.964;2022-12-16T18:18:15;31.63;;;18.40;;
18334;SDS011;9293;49.524;10.964;2022-12-16T18:21:07;32.63;;;19.60;;
18334;SDS011;9293;49.524;10.964;2022-12-16T18:24:04;34.05;;;19.88;;
18334;SDS011;9293;49.524;10.964;2022-12-16T18:26:52;34.35;;;19.98;;
18334;SDS011;9293;49.524;10.964;2022-12-16T18:29:39;32.53;;;19.20;;
18334;SDS011;9293;49.524;10.964;2022-12-16T18:32:29;36.15;;;21.35;;
18334;SDS011;9293;49.524;10.964;2022-12-16T18:35:15;32.42;;;19.45;;